EIN990 EIDW-EICK
Flight info
| Callsign | EIN990 |
|---|---|
| Flight time | 0h 31m |
| Altitude | 20000 |
| Route | PELIG6A PELIG DCT ABAGU DCT TISMO TISMO1R |
| Aircraft | A320/M-SDE3FGHIRWY/LB1 |
Departure
| Time | 2026-05-07 22:03 |
|---|---|
| Airport | Dublin Airport (EIDW) |
Arrival
| Time | 2026-05-07 22:35 |
|---|---|
| Airport | Cork International Airport (EICK) |
| Time | Latitude | Longitude | Altitude | Speed | Heading |
|---|---|---|---|---|---|
| 2026-05-07 21:43 | 53.42587 | -6.24504 | 211 ft | 0 kts | 306° |
| 2026-05-07 21:51 | 53.42581 | -6.24490 | 217 ft | 3 kts | 307° |
| 2026-05-07 21:52 | 53.42568 | -6.24463 | 222 ft | 3 kts | 310° |
| 2026-05-07 21:52 | 53.42555 | -6.24437 | 213 ft | 3 kts | 308° |
| 2026-05-07 21:52 | 53.42544 | -6.24410 | 212 ft | 3 kts | 288° |
| 2026-05-07 21:52 | 53.42541 | -6.24391 | 212 ft | 2 kts | 225° |
| 2026-05-07 21:53 | 53.42543 | -6.24387 | 211 ft | 0 kts | 213° |
| 2026-05-07 21:55 | 53.42542 | -6.24389 | 217 ft | 0 kts | 213° |
| 2026-05-07 21:56 | 53.42539 | -6.24392 | 217 ft | 1 kts | 213° |
| 2026-05-07 21:56 | 53.42534 | -6.24397 | 215 ft | 1 kts | 213° |
| 2026-05-07 21:56 | 53.42527 | -6.24404 | 213 ft | 1 kts | 213° |
| 2026-05-07 21:56 | 53.42521 | -6.24411 | 211 ft | 0 kts | 213° |
| 2026-05-07 21:58 | 53.42519 | -6.24413 | 211 ft | 1 kts | 213° |
| 2026-05-07 21:58 | 53.42515 | -6.24417 | 211 ft | 1 kts | 213° |
| 2026-05-07 21:58 | 53.42494 | -6.24446 | 216 ft | 10 kts | 221° |
| 2026-05-07 21:59 | 53.42443 | -6.24571 | 216 ft | 14 kts | 241° |
| 2026-05-07 21:59 | 53.42428 | -6.24615 | 215 ft | 1 kts | 241° |
| 2026-05-07 21:59 | 53.42400 | -6.24691 | 215 ft | 14 kts | 234° |
| 2026-05-07 21:59 | 53.42376 | -6.24743 | 215 ft | 7 kts | 230° |
| 2026-05-07 22:00 | 53.42318 | -6.24847 | 216 ft | 14 kts | 225° |
| 2026-05-07 22:00 | 53.42261 | -6.24944 | 211 ft | 0 kts | 226° |
| 2026-05-07 22:00 | 53.42247 | -6.24968 | 216 ft | 8 kts | 227° |
| 2026-05-07 22:00 | 53.42227 | -6.25011 | 212 ft | 9 kts | 233° |
| 2026-05-07 22:01 | 53.42189 | -6.25069 | 211 ft | 12 kts | 201° |
| 2026-05-07 22:01 | 53.42103 | -6.25038 | 215 ft | 2 kts | 156° |
| 2026-05-07 22:01 | 53.42053 | -6.25033 | 211 ft | 13 kts | 203° |
| 2026-05-07 22:01 | 53.42033 | -6.25156 | 212 ft | 0 kts | 277° |
| 2026-05-07 22:02 | 53.42033 | -6.25162 | 215 ft | 0 kts | 277° |
| 2026-05-07 22:02 | 53.42033 | -6.25164 | 215 ft | 2 kts | 277° |
| 2026-05-07 22:03 | 53.42044 | -6.25366 | 211 ft | 55 kts | 274° |
| 2026-05-07 22:03 | 53.42100 | -6.26534 | 223 ft | 139 kts | 271° |
| 2026-05-07 22:03 | 53.42188 | -6.28332 | 687 ft | 171 kts | 272° |
| 2026-05-07 22:03 | 53.42294 | -6.30373 | 1679 ft | 176 kts | 273° |
| 2026-05-07 22:04 | 53.42417 | -6.32498 | 2410 ft | 195 kts | 274° |
| 2026-05-07 22:04 | 53.42558 | -6.34924 | 3109 ft | 222 kts | 275° |
| 2026-05-07 22:04 | 53.42716 | -6.37639 | 3944 ft | 245 kts | 275° |
| 2026-05-07 22:04 | 53.42883 | -6.40553 | 5126 ft | 255 kts | 274° |
| 2026-05-07 22:05 | 53.43032 | -6.43518 | 6334 ft | 262 kts | 269° |
| 2026-05-07 22:05 | 53.42710 | -6.46534 | 7480 ft | 267 kts | 247° |
| 2026-05-07 22:05 | 53.41970 | -6.49421 | 8443 ft | 273 kts | 245° |
| 2026-05-07 22:05 | 53.41205 | -6.52352 | 8797 ft | 274 kts | 245° |
| 2026-05-07 22:06 | 53.40443 | -6.55280 | 8948 ft | 274 kts | 245° |
| 2026-05-07 22:06 | 53.39684 | -6.58195 | 8973 ft | 273 kts | 245° |
| 2026-05-07 22:06 | 53.38925 | -6.61116 | 8976 ft | 273 kts | 245° |
| 2026-05-07 22:06 | 53.38159 | -6.64054 | 9640 ft | 277 kts | 245° |
| 2026-05-07 22:07 | 53.37375 | -6.67066 | 10577 ft | 292 kts | 245° |
| 2026-05-07 22:07 | 53.36544 | -6.70258 | 11507 ft | 303 kts | 245° |
| 2026-05-07 22:07 | 53.35698 | -6.73514 | 12626 ft | 307 kts | 245° |
| 2026-05-07 22:07 | 53.34842 | -6.76815 | 13758 ft | 310 kts | 245° |
| 2026-05-07 22:08 | 53.33977 | -6.80146 | 14740 ft | 314 kts | 245° |
| 2026-05-07 22:08 | 53.33097 | -6.83521 | 15705 ft | 318 kts | 245° |
| 2026-05-07 22:08 | 53.32206 | -6.86925 | 16662 ft | 322 kts | 245° |
| 2026-05-07 22:08 | 53.31304 | -6.90376 | 17608 ft | 326 kts | 245° |
| 2026-05-07 22:09 | 53.30390 | -6.93874 | 18501 ft | 330 kts | 245° |
| 2026-05-07 22:09 | 53.29463 | -6.97414 | 19313 ft | 334 kts | 245° |
| 2026-05-07 22:09 | 53.28524 | -7.00989 | 19790 ft | 338 kts | 245° |
| 2026-05-07 22:09 | 53.27579 | -7.04583 | 19944 ft | 337 kts | 245° |
| 2026-05-07 22:10 | 53.26661 | -7.08077 | 19977 ft | 319 kts | 244° |
| 2026-05-07 22:10 | 53.25794 | -7.11375 | 19980 ft | 302 kts | 244° |
| 2026-05-07 22:10 | 53.24953 | -7.14555 | 19980 ft | 297 kts | 244° |
| 2026-05-07 22:10 | 53.24121 | -7.17691 | 19980 ft | 295 kts | 244° |
| 2026-05-07 22:11 | 53.23286 | -7.20826 | 19987 ft | 294 kts | 244° |
| 2026-05-07 22:11 | 53.22466 | -7.23898 | 19986 ft | 294 kts | 244° |
| 2026-05-07 22:11 | 53.21632 | -7.27018 | 19986 ft | 294 kts | 244° |
| 2026-05-07 22:11 | 53.20679 | -7.30030 | 19987 ft | 293 kts | 234° |
| 2026-05-07 22:12 | 53.19302 | -7.32526 | 19986 ft | 293 kts | 220° |
| 2026-05-07 22:12 | 53.17577 | -7.34309 | 19986 ft | 294 kts | 205° |
| 2026-05-07 22:12 | 53.15613 | -7.35346 | 19986 ft | 296 kts | 198° |
| 2026-05-07 22:12 | 53.13622 | -7.36242 | 19987 ft | 297 kts | 198° |
| 2026-05-07 22:13 | 53.11629 | -7.37142 | 19993 ft | 297 kts | 198° |
| 2026-05-07 22:13 | 53.09639 | -7.38046 | 19995 ft | 297 kts | 198° |
| 2026-05-07 22:13 | 53.07646 | -7.38952 | 19997 ft | 297 kts | 198° |
| 2026-05-07 22:13 | 53.05621 | -7.39874 | 19996 ft | 312 kts | 198° |
| 2026-05-07 22:14 | 53.03430 | -7.40880 | 19993 ft | 337 kts | 198° |
| 2026-05-07 22:14 | 53.01162 | -7.41915 | 19979 ft | 344 kts | 197° |
| 2026-05-07 22:14 | 52.98835 | -7.42965 | 19994 ft | 347 kts | 197° |
| 2026-05-07 22:14 | 52.96507 | -7.44014 | 19994 ft | 347 kts | 197° |
| 2026-05-07 22:15 | 52.94148 | -7.45078 | 19994 ft | 361 kts | 197° |
| 2026-05-07 22:15 | 52.91656 | -7.46207 | 19997 ft | 379 kts | 197° |
| 2026-05-07 22:15 | 52.89080 | -7.47369 | 19997 ft | 385 kts | 197° |
| 2026-05-07 22:15 | 52.86488 | -7.48536 | 19997 ft | 386 kts | 197° |
| 2026-05-07 22:16 | 52.83893 | -7.49701 | 19997 ft | 386 kts | 197° |
| 2026-05-07 22:16 | 52.81316 | -7.50854 | 19997 ft | 387 kts | 197° |
| 2026-05-07 22:16 | 52.78717 | -7.52015 | 19997 ft | 387 kts | 197° |
| 2026-05-07 22:16 | 52.76996 | -7.52787 | 19997 ft | 387 kts | 197° |
| 2026-05-07 22:17 | 52.74395 | -7.53955 | 19999 ft | 388 kts | 197° |
| 2026-05-07 22:17 | 52.71789 | -7.55121 | 20012 ft | 388 kts | 197° |
| 2026-05-07 22:17 | 52.69178 | -7.56285 | 20005 ft | 388 kts | 197° |
| 2026-05-07 22:17 | 52.66571 | -7.57452 | 20003 ft | 388 kts | 197° |
| 2026-05-07 22:18 | 52.63958 | -7.58620 | 19998 ft | 388 kts | 197° |
| 2026-05-07 22:18 | 52.58757 | -7.60938 | 20003 ft | 388 kts | 197° |
| 2026-05-07 22:18 | 52.56144 | -7.62099 | 20001 ft | 389 kts | 197° |
| 2026-05-07 22:19 | 52.53537 | -7.63252 | 20003 ft | 389 kts | 197° |
| 2026-05-07 22:19 | 52.50929 | -7.64465 | 19992 ft | 388 kts | 201° |
| 2026-05-07 22:19 | 52.48529 | -7.66463 | 19993 ft | 387 kts | 212° |
| 2026-05-07 22:19 | 52.46227 | -7.68767 | 19993 ft | 388 kts | 212° |
| 2026-05-07 22:20 | 52.43920 | -7.71083 | 19994 ft | 388 kts | 212° |
| 2026-05-07 22:20 | 52.41653 | -7.73357 | 19995 ft | 388 kts | 212° |
| 2026-05-07 22:20 | 52.39337 | -7.75676 | 19702 ft | 388 kts | 212° |
| 2026-05-07 22:20 | 52.37044 | -7.77963 | 19136 ft | 384 kts | 212° |
| 2026-05-07 22:21 | 52.34764 | -7.80233 | 18610 ft | 382 kts | 212° |
| 2026-05-07 22:21 | 52.32500 | -7.82481 | 18044 ft | 378 kts | 212° |
| 2026-05-07 22:21 | 52.30293 | -7.84668 | 17848 ft | 361 kts | 212° |
| 2026-05-07 22:21 | 52.28216 | -7.86727 | 17625 ft | 337 kts | 212° |
| 2026-05-07 22:22 | 52.26268 | -7.88662 | 16849 ft | 323 kts | 212° |
| 2026-05-07 22:22 | 52.24376 | -7.90541 | 16169 ft | 310 kts | 212° |
| 2026-05-07 22:22 | 52.22587 | -7.92312 | 15779 ft | 292 kts | 212° |
| 2026-05-07 22:22 | 52.20891 | -7.93983 | 15405 ft | 277 kts | 212° |
| 2026-05-07 22:23 | 52.19279 | -7.95574 | 15053 ft | 266 kts | 212° |
| 2026-05-07 22:23 | 52.17694 | -7.97143 | 14694 ft | 268 kts | 212° |
| 2026-05-07 22:23 | 52.16102 | -7.98720 | 14337 ft | 268 kts | 213° |
| 2026-05-07 22:23 | 52.14659 | -8.00634 | 13979 ft | 268 kts | 226° |
| 2026-05-07 22:24 | 52.13549 | -8.03076 | 13576 ft | 270 kts | 240° |
| 2026-05-07 22:24 | 52.12850 | -8.05911 | 13181 ft | 271 kts | 254° |
| 2026-05-07 22:24 | 52.12451 | -8.08913 | 12790 ft | 271 kts | 256° |
| 2026-05-07 22:24 | 52.12052 | -8.11900 | 12396 ft | 270 kts | 256° |
| 2026-05-07 22:25 | 52.11647 | -8.14884 | 12002 ft | 270 kts | 256° |
| 2026-05-07 22:25 | 52.11239 | -8.17876 | 11600 ft | 270 kts | 256° |
| 2026-05-07 22:25 | 52.10832 | -8.20859 | 11197 ft | 270 kts | 256° |
| 2026-05-07 22:25 | 52.10425 | -8.23840 | 10787 ft | 270 kts | 256° |
| 2026-05-07 22:26 | 52.10016 | -8.26827 | 10372 ft | 271 kts | 256° |
| 2026-05-07 22:26 | 52.09614 | -8.29778 | 9949 ft | 271 kts | 256° |
| 2026-05-07 22:26 | 52.09201 | -8.32781 | 9483 ft | 271 kts | 256° |
| 2026-05-07 22:26 | 52.08790 | -8.35763 | 9042 ft | 269 kts | 256° |
| 2026-05-07 22:27 | 52.08381 | -8.38724 | 8600 ft | 268 kts | 256° |
| 2026-05-07 22:27 | 52.07975 | -8.41673 | 8150 ft | 266 kts | 256° |
| 2026-05-07 22:27 | 52.07597 | -8.44614 | 7596 ft | 268 kts | 262° |
| 2026-05-07 22:27 | 52.07841 | -8.47665 | 6860 ft | 279 kts | 285° |
| 2026-05-07 22:28 | 52.08461 | -8.50702 | 6094 ft | 287 kts | 288° |
| 2026-05-07 22:28 | 52.09128 | -8.53792 | 5372 ft | 291 kts | 288° |
| 2026-05-07 22:28 | 52.09794 | -8.56906 | 4491 ft | 293 kts | 286° |
| 2026-05-07 22:28 | 52.09945 | -8.60097 | 3565 ft | 281 kts | 256° |
| 2026-05-07 22:29 | 52.08994 | -8.62665 | 3197 ft | 254 kts | 219° |
| 2026-05-07 22:29 | 52.07467 | -8.63598 | 3074 ft | 226 kts | 179° |
| 2026-05-07 22:29 | 52.06027 | -8.63054 | 3046 ft | 201 kts | 160° |
| 2026-05-07 22:29 | 52.04807 | -8.62214 | 3059 ft | 187 kts | 158° |
| 2026-05-07 22:30 | 52.03635 | -8.61373 | 3064 ft | 182 kts | 158° |
| 2026-05-07 22:30 | 52.02496 | -8.60547 | 3093 ft | 173 kts | 158° |
| 2026-05-07 22:30 | 52.01448 | -8.59776 | 3067 ft | 161 kts | 155° |
| 2026-05-07 22:30 | 52.00460 | -8.58979 | 3088 ft | 156 kts | 158° |
| 2026-05-07 22:31 | 51.99481 | -8.58302 | 3070 ft | 151 kts | 160° |
| 2026-05-07 22:31 | 51.98513 | -8.57687 | 3066 ft | 149 kts | 161° |
| 2026-05-07 22:31 | 51.97547 | -8.57094 | 3037 ft | 149 kts | 162° |
| 2026-05-07 22:31 | 51.96579 | -8.56511 | 2929 ft | 148 kts | 162° |
| 2026-05-07 22:32 | 51.95619 | -8.55936 | 2761 ft | 146 kts | 162° |
| 2026-05-07 22:32 | 51.94677 | -8.55374 | 2575 ft | 143 kts | 162° |
| 2026-05-07 22:32 | 51.93747 | -8.54820 | 2385 ft | 142 kts | 162° |
| 2026-05-07 22:32 | 51.92827 | -8.54273 | 2191 ft | 141 kts | 162° |
| 2026-05-07 22:33 | 51.91901 | -8.53723 | 2000 ft | 141 kts | 162° |
| 2026-05-07 22:33 | 51.90977 | -8.53174 | 1802 ft | 141 kts | 162° |
| 2026-05-07 22:33 | 51.90055 | -8.52627 | 1611 ft | 141 kts | 162° |
| 2026-05-07 22:33 | 51.89133 | -8.52080 | 1409 ft | 141 kts | 162° |
| 2026-05-07 22:34 | 51.88216 | -8.51534 | 1206 ft | 140 kts | 161° |
| 2026-05-07 22:34 | 51.87303 | -8.50972 | 1003 ft | 140 kts | 160° |
| 2026-05-07 22:34 | 51.86414 | -8.50438 | 802 ft | 135 kts | 162° |
| 2026-05-07 22:34 | 51.85542 | -8.49942 | 646 ft | 131 kts | 161° |
| 2026-05-07 22:35 | 51.84690 | -8.49436 | 523 ft | 131 kts | 161° |
| 2026-05-07 22:35 | 51.84009 | -8.49044 | 505 ft | 66 kts | 160° |
| 2026-05-07 22:35 | 51.83645 | -8.48832 | 505 ft | 42 kts | 160° |
| 2026-05-07 22:35 | 51.83543 | -8.48772 | 505 ft | 2 kts | 97° |
| 2026-05-07 22:36 | 51.83552 | -8.48768 | 505 ft | 2 kts | 21° |
| 2026-05-07 22:36 | 51.83605 | -8.48796 | 505 ft | 14 kts | 337° |
| 2026-05-07 22:36 | 51.83736 | -8.48881 | 505 ft | 26 kts | 339° |
| 2026-05-07 22:36 | 51.83935 | -8.49000 | 505 ft | 33 kts | 340° |
| 2026-05-07 22:37 | 51.84138 | -8.49116 | 505 ft | 18 kts | 342° |
| 2026-05-07 22:37 | 51.84273 | -8.49166 | 505 ft | 20 kts | 11° |
| 2026-05-07 22:37 | 51.84353 | -8.49010 | 505 ft | 12 kts | 58° |
| 2026-05-07 22:37 | 51.84433 | -8.49008 | 505 ft | 18 kts | 344° |
| 2026-05-07 22:38 | 51.84585 | -8.49099 | 505 ft | 27 kts | 339° |
| 2026-05-07 22:38 | 51.84730 | -8.49182 | 505 ft | 8 kts | 340° |
| 2026-05-07 22:38 | 51.84803 | -8.49206 | 505 ft | 13 kts | 15° |
| 2026-05-07 22:38 | 51.84832 | -8.49119 | 505 ft | 1 kts | 71° |
| 2026-05-07 22:39 | 51.84834 | -8.49107 | 505 ft | 2 kts | 72° |
| 2026-05-07 22:39 | 51.84838 | -8.49085 | 505 ft | 2 kts | 72° |
| 2026-05-07 22:39 | 51.84840 | -8.49075 | 505 ft | 0 kts | 71° |
| 2026-05-07 22:39 | 51.84842 | -8.49067 | 505 ft | 1 kts | 70° |
| 2026-05-07 22:40 | 51.84842 | -8.49063 | 505 ft | 1 kts | 74° |
| 2026-05-07 22:40 | 51.84843 | -8.49059 | 505 ft | 0 kts | 72° |